Time;durP1;ratioP1;P1;durP2;ratioP2;P2;SDS_P1;SDS_P2;PMS_P1;PMS_P2;Temp;Humidity;BMP_temperature;BMP_pressure;BME280_temperature;BME280_humidity;BME280_pressure;Samples;Min_cycle;Max_cycle;Signal;HPM_P1;HPM_P2
2023/10/26 00:00:59;;;;;;;1.13;1.13;;;16.00;72.80;;;;;;5134213;27;20176;-70
2023/10/26 00:03:24;;;;;;;1.60;1.50;;;16.00;72.80;;;;;;5135121;27;20191;-71
2023/10/26 00:05:50;;;;;;;1.50;1.40;;;15.90;72.70;;;;;;5133935;27;20643;-70
2023/10/26 00:08:15;;;;;;;1.30;1.20;;;15.90;72.80;;;;;;5134680;27;20276;-70
2023/10/26 00:10:41;;;;;;;1.20;1.10;;;16.00;72.90;;;;;;5134447;27;20196;-70
2023/10/26 00:13:07;;;;;;;1.42;1.33;;;16.00;72.90;;;;;;5133920;27;20185;-72
2023/10/26 00:15:33;;;;;;;1.23;1.00;;;15.90;72.80;;;;;;5134715;27;20199;-70
2023/10/26 00:17:58;;;;;;;1.13;1.05;;;15.90;72.80;;;;;;5134670;27;20638;-71
2023/10/26 00:20:24;;;;;;;1.38;1.27;;;15.90;72.80;;;;;;5133712;27;20665;-71
2023/10/26 00:22:49;;;;;;;1.27;1.17;;;16.00;72.90;;;;;;5134486;27;20165;-70
2023/10/26 00:25:15;;;;;;;1.52;1.27;;;15.90;72.80;;;;;;5134048;27;20646;-70
2023/10/26 00:27:40;;;;;;;1.63;0.98;;;15.90;72.80;;;;;;5133577;27;20645;-71
2023/10/26 00:30:10;;;;;;;0.90;0.90;;;15.90;72.80;;;;;;5134210;27;20284;-71
2023/10/26 00:32:36;;;;;;;0.90;0.90;;;15.90;72.80;;;;;;5134259;27;20587;-70
2023/10/26 00:35:01;;;;;;;0.88;0.88;;;15.90;72.90;;;;;;5133396;27;20694;-72
2023/10/26 00:37:27;;;;;;;1.60;0.90;;;15.90;72.80;;;;;;5134070;27;20616;-71
2023/10/26 00:39:52;;;;;;;1.13;0.90;;;15.90;72.90;;;;;;5134153;27;20164;-71
2023/10/26 00:42:18;;;;;;;1.08;1.08;;;15.90;72.90;;;;;;5133365;27;20180;-71
2023/10/26 00:44:46;;;;;;;1.17;1.08;;;15.90;72.90;;;;;;5133998;27;20165;-71
2023/10/26 00:47:11;;;;;;;1.10;1.10;;;15.90;72.90;;;;;;5133731;27;20746;-72
2023/10/26 00:49:40;;;;;;;1.05;0.90;;;15.90;72.90;;;;;;5097998;27;20267;-72
2023/10/26 00:52:06;;;;;;;1.35;1.00;;;15.90;72.90;;;;;;5115828;27;20264;-71
2023/10/26 00:54:32;;;;;;;1.08;1.08;;;15.90;72.90;;;;;;5115436;27;20650;-71
2023/10/26 00:56:57;;;;;;;0.93;0.93;;;15.90;72.90;;;;;;5115231;27;20177;-71
2023/10/26 00:59:23;;;;;;;1.35;1.25;;;15.90;73.00;;;;;;5115505;27;20165;-71
2023/10/26 01:01:49;;;;;;;1.60;1.10;;;15.80;72.90;;;;;;5133865;27;20544;-70
2023/10/26 01:04:14;;;;;;;1.25;1.08;;;15.80;72.80;;;;;;5114514;27;20237;-71
2023/10/26 01:06:43;;;;;;;0.90;0.80;;;15.80;72.90;;;;;;5133721;27;20301;-70
2023/10/26 01:09:09;;;;;;;1.27;1.15;;;15.80;72.90;;;;;;5131998;27;20619;-70
2023/10/26 01:11:38;;;;;;;1.08;0.95;;;15.80;72.90;;;;;;5133329;27;20214;-70
2023/10/26 01:14:06;;;;;;;1.13;1.05;;;15.80;72.90;;;;;;5115289;28;20195;-70
2023/10/26 01:16:32;;;;;;;1.10;1.10;;;15.80;72.90;;;;;;5132683;28;20174;-71
2023/10/26 01:18:58;;;;;;;1.40;1.30;;;15.80;72.90;;;;;;5133735;28;20179;-70
2023/10/26 01:21:25;;;;;;;1.33;1.00;;;15.80;72.90;;;;;;5133490;28;20176;-71
2023/10/26 01:23:50;;;;;;;1.35;1.10;;;15.80;72.90;;;;;;5132822;28;20630;-70
2023/10/26 01:26:16;;;;;;;1.10;1.00;;;15.80;72.90;;;;;;5133190;28;20217;-71
2023/10/26 01:28:41;;;;;;;1.08;1.08;;;15.80;72.90;;;;;;5133579;28;20168;-70
2023/10/26 01:31:07;;;;;;;1.20;1.10;;;15.80;73.00;;;;;;5132461;28;20200;-71
2023/10/26 01:33:32;;;;;;;1.52;1.42;;;15.80;72.90;;;;;;5133232;28;20175;-71
2023/10/26 01:35:58;;;;;;;1.40;1.30;;;15.80;72.90;;;;;;5133595;28;20168;-71
2023/10/26 01:38:23;;;;;;;1.25;1.15;;;15.80;73.00;;;;;;5132421;28;20160;-71
2023/10/26 01:40:49;;;;;;;1.33;1.23;;;15.70;72.90;;;;;;5133445;28;20179;-70
2023/10/26 01:43:15;;;;;;;1.30;1.20;;;15.80;73.00;;;;;;5133249;28;20178;-70
2023/10/26 01:45:40;;;;;;;1.30;1.20;;;15.70;72.90;;;;;;5132662;28;20267;-71
2023/10/26 01:48:06;;;;;;;1.00;1.00;;;15.70;72.90;;;;;;5132998;28;20299;-71
2023/10/26 01:50:31;;;;;;;1.13;1.13;;;15.70;72.90;;;;;;5133172;28;20567;-72
2023/10/26 01:52:57;;;;;;;1.70;1.10;;;15.70;73.70;;;;;;5132605;28;20200;-71
2023/10/26 01:55:23;;;;;;;1.05;1.02;;;15.70;72.90;;;;;;5133149;28;20177;-72
2023/10/26 01:57:48;;;;;;;0.80;0.80;;;15.70;73.00;;;;;;5133330;28;20217;-71
2023/10/26 02:00:14;;;;;;;1.38;1.27;;;15.70;72.90;;;;;;5132288;28;20540;-71
2023/10/26 02:02:41;;;;;;;1.25;1.15;;;15.70;72.90;;;;;;5133215;28;20636;-71
2023/10/26 02:05:07;;;;;;;1.00;1.00;;;15.70;72.90;;;;;;5132900;28;20172;-71
2023/10/26 02:07:33;;;;;;;1.10;1.10;;;15.70;72.90;;;;;;5132255;28;20512;-71
2023/10/26 02:09:58;;;;;;;1.27;1.17;;;15.70;72.90;;;;;;5133076;28;20192;-71
2023/10/26 02:12:24;;;;;;;1.33;1.23;;;15.70;73.00;;;;;;5132454;28;20183;-70
2023/10/26 02:14:50;;;;;;;1.42;1.33;;;15.70;73.10;;;;;;5132932;28;20161;-71
2023/10/26 02:17:16;;;;;;;1.00;1.00;;;15.70;72.90;;;;;;5132856;28;20186;-71
2023/10/26 02:19:41;;;;;;;1.30;1.20;;;15.70;73.00;;;;;;5132873;27;20635;-70
2023/10/26 02:22:07;;;;;;;1.45;1.10;;;15.80;73.10;;;;;;5136561;27;20563;-70
2023/10/26 02:24:32;;;;;;;1.20;1.20;;;15.70;73.00;;;;;;5136830;27;20256;-71
2023/10/26 02:26:58;;;;;;;1.30;1.20;;;15.70;73.00;;;;;;5136006;27;20169;-70
2023/10/26 02:29:23;;;;;;;1.05;1.05;;;15.70;73.00;;;;;;5136664;27;20177;-71
2023/10/26 02:31:49;;;;;;;1.02;1.02;;;15.70;72.90;;;;;;5136592;27;20211;-71
2023/10/26 02:34:15;;;;;;;1.40;1.40;;;15.70;73.00;;;;;;5135632;27;20176;-71
2023/10/26 02:36:40;;;;;;;1.38;1.23;;;15.70;73.00;;;;;;5136858;27;20653;-71
2023/10/26 02:39:06;;;;;;;1.60;1.10;;;15.70;73.00;;;;;;5136532;27;20175;-72
2023/10/26 02:41:31;;;;;;;1.27;1.20;;;15.60;72.90;;;;;;5135702;27;20160;-71
2023/10/26 02:43:57;;;;;;;1.20;1.20;;;15.70;73.00;;;;;;5136584;27;20522;-71
2023/10/26 02:46:25;;;;;;;2.75;1.40;;;15.70;73.00;;;;;;5136239;27;20668;-72
2023/10/26 02:48:54;;;;;;;1.20;1.20;;;15.60;72.90;;;;;;5135494;27;20299;-71
2023/10/26 02:51:19;;;;;;;1.02;1.02;;;15.60;73.00;;;;;;5135790;27;20235;-72
2023/10/26 02:53:45;;;;;;;1.50;1.25;;;15.60;73.00;;;;;;5136365;27;20631;-71
2023/10/26 02:56:10;;;;;;;0.93;0.93;;;15.70;73.10;;;;;;5135466;27;20702;-71
2023/10/26 02:58:36;;;;;;;1.40;1.30;;;15.60;73.00;;;;;;5136051;27;20243;-71
2023/10/26 03:01:01;;;;;;;1.35;1.15;;;15.60;73.00;;;;;;5135854;27;20593;-71
2023/10/26 03:03:27;;;;;;;1.73;1.42;;;15.60;73.00;;;;;;5135317;27;20751;-71
2023/10/26 03:05:53;;;;;;;1.75;1.10;;;15.60;73.00;;;;;;5135868;27;20529;-70
2023/10/26 03:08:19;;;;;;;2.17;1.30;;;15.60;73.00;;;;;;5135848;27;20264;-71
2023/10/26 03:10:45;;;;;;;1.70;1.08;;;15.60;73.00;;;;;;5135148;27;20594;-70
2023/10/26 03:13:11;;;;;;;2.70;1.30;;;15.60;73.00;;;;;;5135759;27;20657;-71
2023/10/26 03:15:37;;;;;;;1.00;1.00;;;15.60;73.00;;;;;;5134945;27;20180;-70
2023/10/26 03:18:02;;;;;;;1.23;1.10;;;15.60;73.00;;;;;;5135688;27;20165;-70
2023/10/26 03:20:28;;;;;;;2.05;1.50;;;15.60;73.00;;;;;;5135457;27;20622;-71
2023/10/26 03:22:54;;;;;;;1.23;1.20;;;15.60;73.00;;;;;;5135304;27;20184;-69
2023/10/26 03:25:19;;;;;;;1.20;1.15;;;15.60;73.00;;;;;;5135468;27;20251;-71
2023/10/26 03:27:45;;;;;;;1.30;1.20;;;15.60;73.00;;;;;;5135728;27;20179;-70
2023/10/26 03:30:11;;;;;;;1.42;1.33;;;15.60;73.10;;;;;;5134709;27;20199;-71
2023/10/26 03:32:36;;;;;;;1.40;1.30;;;15.60;73.00;;;;;;5134609;27;20172;-71
2023/10/26 03:35:02;;;;;;;1.38;1.27;;;15.60;73.00;;;;;;5135050;27;20597;-72
2023/10/26 03:37:28;;;;;;;1.15;1.13;;;15.60;73.10;;;;;;5116230;27;20520;-72
2023/10/26 03:39:53;;;;;;;1.40;1.30;;;15.60;73.10;;;;;;5135237;27;20183;-70
2023/10/26 03:42:19;;;;;;;1.10;1.10;;;15.60;73.10;;;;;;5135137;27;20180;-71
2023/10/26 03:44:45;;;;;;;1.73;1.33;;;15.60;73.10;;;;;;5134562;27;20552;-71
2023/10/26 03:47:10;;;;;;;1.73;1.60;;;15.60;73.10;;;;;;5134740;27;20557;-71
2023/10/26 03:49:36;;;;;;;1.40;1.30;;;15.60;73.10;;;;;;5134845;27;20638;-72
2023/10/26 03:52:01;;;;;;;1.42;1.33;;;15.60;73.10;;;;;;5134412;27;20183;-72
2023/10/26 03:54:27;;;;;;;1.30;1.27;;;15.60;73.10;;;;;;5134847;27;20255;-72
2023/10/26 03:56:53;;;;;;;1.23;1.23;;;15.50;73.10;;;;;;5135018;27;20175;-71
2023/10/26 03:59:18;;;;;;;1.42;1.33;;;15.50;73.10;;;;;;5133996;27;20252;-71
2023/10/26 04:01:44;;;;;;;1.33;1.23;;;15.60;73.10;;;;;;5134732;27;20210;-70
2023/10/26 04:04:09;;;;;;;1.52;1.42;;;15.50;73.10;;;;;;5134683;27;20263;-71
2023/10/26 04:06:35;;;;;;;1.08;1.00;;;15.50;73.10;;;;;;5133813;27;20261;-71
2023/10/26 04:09:00;;;;;;;1.02;1.02;;;15.50;73.10;;;;;;5134505;27;20176;-70
2023/10/26 04:11:26;;;;;;;1.23;1.13;;;15.50;73.10;;;;;;5134623;27;20211;-70
2023/10/26 04:13:53;;;;;;;1.60;1.50;;;15.50;73.10;;;;;;5133956;27;20173;-70
2023/10/26 04:16:19;;;;;;;1.67;1.58;;;15.50;73.10;;;;;;5134339;27;20180;-71
2023/10/26 04:18:45;;;;;;;1.55;1.48;;;15.50;73.10;;;;;;5134728;27;20173;-71
2023/10/26 04:21:11;;;;;;;1.20;1.20;;;15.50;74.00;;;;;;5133886;27;20225;-70
2023/10/26 04:23:36;;;;;;;1.55;1.45;;;15.50;73.10;;;;;;5134250;27;20723;-70
2023/10/26 04:26:02;;;;;;;1.58;1.48;;;15.50;73.10;;;;;;5133443;27;20267;-71
2023/10/26 04:28:27;;;;;;;1.55;1.45;;;15.50;73.10;;;;;;5134390;27;20259;-71
2023/10/26 04:30:53;;;;;;;1.50;1.40;;;15.50;73.10;;;;;;5134184;27;20751;-70
2023/10/26 04:33:19;;;;;;;1.48;1.35;;;15.50;73.10;;;;;;5133298;27;20654;-70
2023/10/26 04:35:45;;;;;;;1.60;1.50;;;15.50;73.10;;;;;;5134137;27;20221;-70
2023/10/26 04:38:11;;;;;;;1.52;1.42;;;15.50;73.10;;;;;;5134190;27;20176;-70
2023/10/26 04:40:40;;;;;;;1.80;1.70;;;15.50;73.10;;;;;;5133149;27;20224;-71
2023/10/26 04:43:06;;;;;;;1.50;1.40;;;15.50;73.10;;;;;;5133173;27;20656;-71
2023/10/26 04:45:32;;;;;;;1.75;1.42;;;15.50;73.10;;;;;;5133895;27;20248;-71
2023/10/26 04:47:58;;;;;;;1.42;1.33;;;15.50;73.10;;;;;;5133087;27;20303;-71
2023/10/26 04:50:27;;;;;;;1.65;1.55;;;15.50;73.10;;;;;;5134006;27;20208;-71
2023/10/26 04:52:53;;;;;;;1.52;1.42;;;15.50;73.10;;;;;;5134274;27;20192;-71
2023/10/26 04:55:19;;;;;;;1.67;1.52;;;15.50;73.10;;;;;;5132898;27;20220;-72
2023/10/26 04:57:44;;;;;;;1.58;1.48;;;15.40;73.00;;;;;;5133832;27;20176;-70
2023/10/26 05:00:10;;;;;;;1.63;1.40;;;15.50;73.10;;;;;;5133625;27;20206;-72
2023/10/26 05:02:41;;;;;;;1.70;1.60;;;15.50;73.20;;;;;;5132914;27;20168;-71
2023/10/26 05:05:07;;;;;;;1.45;1.35;;;15.50;73.10;;;;;;5133775;27;20172;-71
2023/10/26 05:07:33;;;;;;;1.58;1.20;;;15.40;73.00;;;;;;5133615;27;20699;-71
2023/10/26 05:09:59;;;;;;;1.48;1.38;;;15.50;73.10;;;;;;5132995;27;20287;-70
2023/10/26 05:12:24;;;;;;;1.65;1.40;;;15.40;73.10;;;;;;5133559;27;20547;-71
2023/10/26 05:14:50;;;;;;;1.83;1.73;;;15.40;73.10;;;;;;5133500;27;20169;-71
2023/10/26 05:17:16;;;;;;;1.63;1.52;;;15.40;73.10;;;;;;5132896;27;20176;-70
2023/10/26 05:19:41;;;;;;;1.60;1.50;;;15.40;73.10;;;;;;5133678;27;20161;-69
2023/10/26 05:22:07;;;;;;;1.55;1.45;;;15.40;73.10;;;;;;5133036;28;20816;-70
2023/10/26 05:24:32;;;;;;;1.50;1.40;;;15.40;73.10;;;;;;5133039;28;20277;-71
2023/10/26 05:26:58;;;;;;;1.67;1.58;;;15.40;73.10;;;;;;5133727;28;20259;-70
2023/10/26 05:29:23;;;;;;;1.90;1.77;;;15.40;73.10;;;;;;5132629;28;20638;-71
2023/10/26 05:31:49;;;;;;;1.60;1.50;;;15.40;73.10;;;;;;5133135;28;20567;-70
2023/10/26 05:34:15;;;;;;;1.67;1.58;;;15.40;73.10;;;;;;5133451;28;20255;-70
2023/10/26 05:36:40;;;;;;;1.75;1.65;;;15.40;73.10;;;;;;5132726;28;20164;-71
2023/10/26 05:39:06;;;;;;;1.80;1.70;;;15.40;73.10;;;;;;5133141;28;20164;-70
2023/10/26 05:41:33;;;;;;;1.80;1.70;;;15.40;73.10;;;;;;5133150;28;20168;-70
2023/10/26 05:43:59;;;;;;;1.75;1.65;;;15.40;73.00;;;;;;5132697;28;20588;-70
2023/10/26 05:46:25;;;;;;;1.98;1.88;;;15.40;73.10;;;;;;5133222;28;20294;-70
2023/10/26 05:48:50;;;;;;;1.75;1.50;;;15.40;73.00;;;;;;5133077;28;20713;-71
2023/10/26 05:51:16;;;;;;;1.73;1.63;;;15.40;73.10;;;;;;5132317;28;20219;-70
2023/10/26 05:53:41;;;;;;;1.50;1.40;;;15.40;73.10;;;;;;5133297;28;20210;-70
2023/10/26 05:56:07;;;;;;;1.80;1.70;;;15.40;73.10;;;;;;5136082;27;20318;-70
2023/10/26 05:58:32;;;;;;;1.80;1.70;;;15.40;73.10;;;;;;5136365;27;20200;-70
2023/10/26 06:00:59;;;;;;;1.70;1.60;;;15.30;73.10;;;;;;5137158;27;20168;-71
2023/10/26 06:03:25;;;;;;;1.50;1.40;;;15.30;73.10;;;;;;5137344;27;20176;-70
2023/10/26 06:05:50;;;;;;;1.67;1.58;;;15.40;73.10;;;;;;5136276;27;20544;-70
2023/10/26 06:08:16;;;;;;;2.13;2.00;;;15.40;73.10;;;;;;5136867;27;20184;-70
2023/10/26 06:10:42;;;;;;;1.80;1.70;;;15.40;73.00;;;;;;5136860;27;20260;-69
2023/10/26 06:13:07;;;;;;;1.70;1.60;;;15.50;73.10;;;;;;5136074;27;20180;-70
2023/10/26 06:15:36;;;;;;;1.60;1.50;;;15.50;73.00;;;;;;5136752;27;20183;-70
2023/10/26 06:18:02;;;;;;;2.08;1.88;;;15.70;72.80;;;;;;5137013;27;20573;-71
2023/10/26 06:20:28;;;;;;;1.80;1.70;;;15.80;72.60;;;;;;5135877;27;20181;-70
2023/10/26 06:22:56;;;;;;;1.70;1.60;;;16.00;72.40;;;;;;5136883;27;20251;-69
2023/10/26 06:25:23;;;;;;;1.60;1.50;;;16.20;72.10;;;;;;5136273;27;20220;-71
2023/10/26 06:27:48;;;;;;;1.60;1.40;;;16.40;71.70;;;;;;5135615;27;20557;-70
2023/10/26 06:30:15;;;;;;;1.60;1.50;;;16.60;71.20;;;;;;5136409;27;20239;-71
2023/10/26 06:32:41;;;;;;;1.73;1.48;;;16.90;70.30;;;;;;5136212;27;20199;-70
2023/10/26 06:35:06;;;;;;;1.00;1.00;;;17.20;69.30;;;;;;5136484;27;20725;-70
2023/10/26 06:37:32;;;;;;;1.40;1.30;;;17.40;68.60;;;;;;5136338;27;20172;-71
2023/10/26 06:39:58;;;;;;;1.40;1.30;;;17.50;68.10;;;;;;5135875;27;20172;-70
2023/10/26 06:42:23;;;;;;;0.95;0.93;;;17.50;67.90;;;;;;5136292;27;20631;-71
2023/10/26 06:44:49;;;;;;;2.50;1.20;;;17.50;68.10;;;;;;5136280;27;20169;-70
2023/10/26 06:47:14;;;;;;;0.88;0.88;;;17.50;68.10;;;;;;5135333;27;20235;-71
2023/10/26 06:49:41;;;;;;;1.30;1.30;;;17.50;68.10;;;;;;5136239;27;20168;-72
2023/10/26 06:52:07;;;;;;;1.15;1.08;;;17.50;68.10;;;;;;5136113;27;20179;-71
2023/10/26 06:54:32;;;;;;;1.17;1.17;;;17.50;68.00;;;;;;5135126;27;20168;-71
2023/10/26 06:56:59;;;;;;;1.20;1.10;;;17.50;67.90;;;;;;5136095;27;20187;-71
2023/10/26 06:59:27;;;;;;;1.13;1.02;;;17.60;67.90;;;;;;5136238;27;20168;-71
2023/10/26 07:01:53;;;;;;;1.10;1.00;;;17.60;67.90;;;;;;5135539;27;20184;-70
2023/10/26 07:04:19;;;;;;;1.50;1.40;;;17.60;67.90;;;;;;5135812;27;20180;-71
2023/10/26 07:06:45;;;;;;;1.40;1.30;;;17.60;67.90;;;;;;5134537;27;20165;-67
2023/10/26 07:09:11;;;;;;;1.48;1.20;;;17.60;68.20;;;;;;5135084;27;20177;-68
2023/10/26 07:11:37;;;;;;;2.50;1.45;;;17.60;68.50;;;;;;5135542;27;20224;-68
2023/10/26 07:14:02;;;;;;;2.47;1.60;;;17.40;68.60;;;;;;5135352;27;20250;-67
2023/10/26 07:16:28;;;;;;;3.60;1.70;;;17.40;69.10;;;;;;5134791;27;20168;-70
2023/10/26 07:18:53;;;;;;;4.43;1.77;;;17.30;69.30;;;;;;5135654;27;20599;-68
2023/10/26 07:21:19;;;;;;;2.65;1.50;;;17.30;69.30;;;;;;5135137;27;20182;-68
2023/10/26 07:23:44;;;;;;;1.50;1.40;;;17.30;69.50;;;;;;5134772;27;20213;-68
2023/10/26 07:26:14;;;;;;;2.28;1.40;;;17.30;69.70;;;;;;5135195;27;20576;-68
2023/10/26 07:28:40;;;;;;;1.92;1.38;;;17.20;69.70;;;;;;5135866;27;20181;-68
2023/10/26 07:31:05;;;;;;;2.53;1.50;;;17.30;69.60;;;;;;5134664;27;20208;-67
2023/10/26 07:33:31;;;;;;;3.65;1.50;;;17.30;69.60;;;;;;5135356;27;20233;-67
2023/10/26 07:35:57;;;;;;;1.77;1.10;;;17.30;69.50;;;;;;5134856;27;20172;-68
2023/10/26 07:38:25;;;;;;;2.95;1.50;;;17.30;69.50;;;;;;5135023;27;20571;-68
2023/10/26 07:40:52;;;;;;;2.00;1.30;;;17.30;69.60;;;;;;5135287;27;20259;-68
2023/10/26 07:43:17;;;;;;;3.65;1.88;;;17.20;69.70;;;;;;5134298;27;20596;-68
2023/10/26 07:45:43;;;;;;;1.98;1.20;;;17.20;69.80;;;;;;5135076;27;20171;-68
2023/10/26 07:48:09;;;;;;;2.75;1.50;;;17.20;70.10;;;;;;5134911;27;20315;-68
2023/10/26 07:50:34;;;;;;;2.40;1.30;;;17.20;70.10;;;;;;5134190;27;20208;-69
2023/10/26 07:53:00;;;;;;;1.35;1.25;;;17.10;70.10;;;;;;5134866;27;20230;-68
2023/10/26 07:55:25;;;;;;;2.17;1.20;;;17.10;70.20;;;;;;5134903;27;20236;-68
2023/10/26 07:57:51;;;;;;;1.77;1.40;;;17.10;70.30;;;;;;5134165;27;20619;-68
2023/10/26 08:00:16;;;;;;;1.38;1.27;;;17.10;70.40;;;;;;5134595;27;20168;-68
2023/10/26 08:02:42;;;;;;;2.40;1.60;;;17.20;70.30;;;;;;5134995;27;20255;-68
2023/10/26 08:05:08;;;;;;;2.22;1.55;;;17.20;70.20;;;;;;5134168;27;20676;-67
2023/10/26 08:07:35;;;;;;;2.40;1.42;;;17.20;70.20;;;;;;5134742;27;20233;-68
2023/10/26 08:10:01;;;;;;;1.60;1.50;;;17.10;70.20;;;;;;5134598;27;20600;-68
2023/10/26 08:12:26;;;;;;;1.38;1.27;;;17.10;70.10;;;;;;5133909;27;20200;-68
2023/10/26 08:14:53;;;;;;;2.20;1.40;;;17.10;70.40;;;;;;5134700;27;20200;-68
2023/10/26 08:17:19;;;;;;;1.20;1.10;;;17.10;70.40;;;;;;5134111;27;20554;-68
2023/10/26 08:19:44;;;;;;;1.38;1.25;;;17.10;70.60;;;;;;5133949;27;20161;-69
2023/10/26 08:22:10;;;;;;;1.52;1.20;;;17.10;70.70;;;;;;5134225;27;20168;-68
2023/10/26 08:24:36;;;;;;;2.35;1.42;;;17.10;70.70;;;;;;5134231;27;20178;-68
2023/10/26 08:27:02;;;;;;;1.35;1.25;;;17.10;70.60;;;;;;5133753;27;20172;-68
2023/10/26 08:29:29;;;;;;;1.50;1.40;;;17.10;70.50;;;;;;5134135;27;20196;-68
2023/10/26 08:31:55;;;;;;;1.48;1.20;;;17.10;70.40;;;;;;5134365;27;20212;-68
2023/10/26 08:34:20;;;;;;;1.67;1.30;;;17.10;70.40;;;;;;5133402;27;20224;-67
2023/10/26 08:36:46;;;;;;;1.25;1.13;;;17.10;70.50;;;;;;5134152;27;20632;-68
2023/10/26 08:39:12;;;;;;;1.63;1.20;;;17.10;70.50;;;;;;5133230;27;20506;-68
2023/10/26 08:41:38;;;;;;;1.33;1.23;;;17.10;70.60;;;;;;5134167;27;20176;-68
2023/10/26 08:44:04;;;;;;;1.58;1.48;;;17.10;70.60;;;;;;5134078;27;20180;-68
2023/10/26 08:46:29;;;;;;;1.23;1.13;;;17.10;70.70;;;;;;5132951;27;20631;-68
2023/10/26 08:48:56;;;;;;;1.42;1.33;;;17.10;70.60;;;;;;5133976;27;20244;-68
2023/10/26 08:51:21;;;;;;;1.40;1.30;;;17.10;71.00;;;;;;5115337;27;20215;-68
2023/10/26 08:53:47;;;;;;;1.67;1.20;;;17.10;70.70;;;;;;5133221;27;20164;-68
2023/10/26 08:56:15;;;;;;;1.38;1.23;;;17.10;70.70;;;;;;5133928;27;20179;-68
2023/10/26 08:58:41;;;;;;;1.40;1.30;;;17.00;70.70;;;;;;5099137;27;20225;-68
2023/10/26 09:01:07;;;;;;;1.52;1.40;;;17.00;70.80;;;;;;5132889;27;20257;-68
2023/10/26 09:03:35;;;;;;;1.40;1.30;;;16.90;70.90;;;;;;5133681;27;20265;-68
2023/10/26 09:06:01;;;;;;;1.08;1.08;;;16.90;70.80;;;;;;5133561;27;20176;-68
2023/10/26 09:08:30;;;;;;;1.25;1.20;;;16.90;71.00;;;;;;5133386;27;20175;-68
2023/10/26 09:10:56;;;;;;;1.00;1.00;;;17.00;71.10;;;;;;5134026;27;20216;-68
2023/10/26 09:13:26;;;;;;;1.52;1.38;;;17.00;71.00;;;;;;5115211;27;20186;-68
2023/10/26 09:15:53;;;;;;;1.92;1.35;;;17.00;70.90;;;;;;5115269;28;20176;-68
2023/10/26 09:18:20;;;;;;;1.77;1.40;;;17.00;71.00;;;;;;5133339;27;20813;-67
2023/10/26 09:21:03;;;;;;;1.80;1.35;;;17.00;71.00;;;;;;5133433;27;20307;-68
2023/10/26 09:23:30;;;;;;;1.98;1.50;;;16.90;71.00;;;;;;5132898;28;20200;-68
2023/10/26 09:25:59;;;;;;;1.52;1.42;;;16.90;71.00;;;;;;5133687;28;20184;-67
2023/10/26 09:28:25;;;;;;;1.42;1.25;;;16.90;71.10;;;;;;5132917;28;20179;-68
2023/10/26 09:30:59;;;;;;;1.30;1.20;;;16.90;71.20;;;;;;5136146;27;20290;-67
2023/10/26 09:33:25;;;;;;;2.05;1.40;;;16.90;71.40;;;;;;5120577;27;20584;-67
2023/10/26 09:35:52;;;;;;;1.60;1.50;;;16.80;71.30;;;;;;5137141;27;20176;-68
2023/10/26 09:38:35;;;;;;;1.63;1.30;;;16.80;71.40;;;;;;5137600;27;20168;-68
2023/10/26 09:41:01;;;;;;;1.50;1.40;;;16.90;71.40;;;;;;5121891;27;20173;-68
2023/10/26 09:43:26;;;;;;;1.40;1.30;;;16.90;71.30;;;;;;5101705;27;20255;-68
2023/10/26 09:45:52;;;;;;;1.58;1.42;;;16.90;71.30;;;;;;5137633;27;20276;-68
2023/10/26 09:48:18;;;;;;;1.60;1.50;;;16.90;71.30;;;;;;5118756;27;20216;-68
2023/10/26 09:50:45;;;;;;;1.70;1.60;;;16.80;71.30;;;;;;5101488;27;20234;-68
2023/10/26 09:53:11;;;;;;;1.30;1.27;;;16.80;71.40;;;;;;5119322;27;20177;-68
2023/10/26 09:55:36;;;;;;;1.73;1.63;;;16.80;71.50;;;;;;5101942;27;20537;-68
2023/10/26 09:58:05;;;;;;;1.58;1.48;;;16.70;71.50;;;;;;5101219;27;20176;-68
2023/10/26 10:00:33;;;;;;;1.95;1.60;;;16.70;71.60;;;;;;5102168;27;20175;-68
2023/10/26 10:03:11;;;;;;;1.40;1.30;;;16.70;71.70;;;;;;5137333;27;20187;-68
2023/10/26 10:05:44;;;;;;;1.83;1.73;;;16.70;71.80;;;;;;5136469;27;20176;-69
2023/10/26 10:08:10;;;;;;;2.08;1.88;;;16.70;71.80;;;;;;5136961;27;20172;-68
2023/10/26 10:10:35;;;;;;;1.92;1.80;;;16.70;71.90;;;;;;5136235;27;20559;-68
2023/10/26 10:13:01;;;;;;;2.15;1.90;;;16.60;71.90;;;;;;5136765;27;20645;-68
2023/10/26 10:15:38;;;;;;;1.60;1.50;;;16.60;72.00;;;;;;5136963;27;20168;-67
2023/10/26 10:18:07;;;;;;;1.70;1.60;;;16.60;72.00;;;;;;5136283;27;20168;-68
2023/10/26 10:20:37;;;;;;;2.25;2.05;;;16.60;72.10;;;;;;5136898;27;20168;-68
2023/10/26 10:23:03;;;;;;;1.60;1.50;;;16.60;72.20;;;;;;5136709;27;20176;-68
2023/10/26 10:25:50;;;;;;;1.70;1.60;;;16.60;72.30;;;;;;5135837;27;20177;-69
2023/10/26 10:28:18;;;;;;;1.70;1.60;;;16.50;72.30;;;;;;5136404;27;20590;-68
2023/10/26 10:30:57;;;;;;;1.40;1.30;;;16.50;72.30;;;;;;5136739;27;20204;-68
2023/10/26 10:33:25;;;;;;;1.90;1.80;;;16.50;72.40;;;;;;5135580;27;20168;-68
2023/10/26 10:36:00;;;;;;;1.83;1.65;;;16.50;72.40;;;;;;5136486;27;20255;-68
2023/10/26 10:38:26;;;;;;;1.77;1.67;;;16.50;72.40;;;;;;5136459;27;20668;-71
2023/10/26 10:40:54;;;;;;;1.85;1.75;;;16.40;72.60;;;;;;5135917;27;20251;-69
2023/10/26 10:43:37;;;;;;;1.92;1.75;;;16.40;72.40;;;;;;5136137;27;20170;-68
2023/10/26 10:46:10;;;;;;;1.83;1.73;;;16.40;72.50;;;;;;5135842;27;20176;-68
2023/10/26 10:48:36;;;;;;;1.67;1.58;;;16.40;72.50;;;;;;5136070;27;20224;-68
2023/10/26 10:51:01;;;;;;;1.67;1.58;;;16.40;72.50;;;;;;5136299;27;20758;-68
2023/10/26 10:53:29;;;;;;;1.63;1.52;;;16.40;72.60;;;;;;5135505;27;20654;-69
2023/10/26 10:55:54;;;;;;;2.00;1.90;;;16.40;72.60;;;;;;5136287;27;20172;-68
2023/10/26 10:58:20;;;;;;;1.98;1.77;;;16.40;72.60;;;;;;5136293;27;20284;-68
2023/10/26 11:00:46;;;;;;;2.03;1.90;;;16.40;72.60;;;;;;5135431;27;20172;-69
2023/10/26 11:03:21;;;;;;;2.58;2.03;;;16.40;72.50;;;;;;5135965;27;20172;-69
2023/10/26 11:05:47;;;;;;;2.20;2.00;;;16.40;72.50;;;;;;5136088;27;20184;-68
2023/10/26 11:08:12;;;;;;;2.35;2.08;;;16.40;72.40;;;;;;5134884;27;20175;-69
2023/10/26 11:10:38;;;;;;;2.25;2.05;;;16.40;72.40;;;;;;5135647;27;20203;-68
2023/10/26 11:13:04;;;;;;;2.03;1.83;;;16.50;72.40;;;;;;5135347;27;20172;-69
2023/10/26 11:15:38;;;;;;;2.10;1.70;;;16.50;72.40;;;;;;5133438;27;20185;-69
2023/10/26 11:18:05;;;;;;;1.85;1.75;;;16.50;72.40;;;;;;5133469;27;20168;-69
2023/10/26 11:20:43;;;;;;;1.70;1.60;;;16.50;72.40;;;;;;5134508;27;20260;-69
2023/10/26 11:23:12;;;;;;;1.65;1.55;;;16.50;72.30;;;;;;5132898;27;20195;-68
2023/10/26 11:25:38;;;;;;;1.70;1.60;;;16.50;72.40;;;;;;5134566;27;20643;-69
2023/10/26 11:28:04;;;;;;;3.08;2.20;;;16.50;72.40;;;;;;5133805;27;20237;-68
2023/10/26 11:30:30;;;;;;;4.28;1.95;;;16.50;72.50;;;;;;5134455;27;20581;-68
2023/10/26 11:32:55;;;;;;;2.00;1.90;;;16.50;72.50;;;;;;5134612;27;20172;-69
2023/10/26 11:35:23;;;;;;;1.92;1.83;;;16.50;72.60;;;;;;5134388;27;20267;-68
2023/10/26 11:37:52;;;;;;;2.53;1.90;;;16.50;72.60;;;;;;5134971;27;20160;-68
2023/10/26 11:40:18;;;;;;;2.80;1.95;;;16.50;72.50;;;;;;5125679;27;20177;-66
2023/10/26 11:42:51;;;;;;;2.25;2.00;;;16.50;72.50;;;;;;5124256;27;20164;-67
2023/10/26 11:45:19;;;;;;;2.35;2.10;;;16.50;72.60;;;;;;5125177;27;20169;-67
2023/10/26 11:47:54;;;;;;;2.03;1.92;;;16.50;72.60;;;;;;5124262;27;20589;-66
2023/10/26 11:50:24;;;;;;;1.73;1.63;;;16.50;72.60;;;;;;5121804;27;20193;-67
2023/10/26 11:52:50;;;;;;;2.45;2.08;;;16.40;72.70;;;;;;5114102;28;20173;-66
2023/10/26 11:55:15;;;;;;;2.30;2.10;;;16.50;72.70;;;;;;5114462;28;20234;-69
2023/10/26 11:57:41;;;;;;;4.47;2.67;;;16.40;72.70;;;;;;5113831;28;20169;-66
2023/10/26 12:00:07;;;;;;;2.08;1.88;;;16.40;72.50;;;;;;5114090;28;20181;-67
2023/10/26 12:02:34;;;;;;;5.85;2.03;;;16.40;72.60;;;;;;5114293;28;20810;-67
2023/10/26 12:04:59;;;;;;;4.30;2.30;;;16.40;72.60;;;;;;5113214;28;20172;-68
2023/10/26 12:07:25;;;;;;;5.18;2.47;;;16.40;72.70;;;;;;5113488;28;20528;-68
2023/10/26 12:09:50;;;;;;;4.00;2.50;;;16.40;72.60;;;;;;5113823;28;20180;-68
2023/10/26 12:12:16;;;;;;;6.13;2.40;;;16.40;72.70;;;;;;5113277;28;20196;-68
2023/10/26 12:14:43;;;;;;;4.35;2.22;;;16.40;72.70;;;;;;5114187;28;20173;-68
2023/10/26 12:17:11;;;;;;;3.13;2.60;;;16.40;72.60;;;;;;5113007;28;20591;-68
2023/10/26 12:19:37;;;;;;;2.92;2.50;;;16.40;72.50;;;;;;5113516;28;20537;-68
2023/10/26 12:22:02;;;;;;;6.75;3.42;;;16.40;72.40;;;;;;5113690;28;20256;-68
2023/10/26 12:24:29;;;;;;;2.90;2.70;;;16.30;72.30;;;;;;5113288;28;20299;-68
2023/10/26 12:26:57;;;;;;;4.00;2.90;;;16.30;72.30;;;;;;5114097;28;20197;-68
2023/10/26 12:29:23;;;;;;;3.05;2.75;;;16.30;72.20;;;;;;5113655;28;20180;-68
2023/10/26 12:31:48;;;;;;;3.33;3.10;;;16.40;72.20;;;;;;5112853;28;20213;-68
2023/10/26 12:34:14;;;;;;;2.83;2.63;;;16.40;72.30;;;;;;5113039;28;20194;-68
2023/10/26 12:36:42;;;;;;;3.42;3.10;;;16.30;72.10;;;;;;5112911;28;20169;-68
2023/10/26 12:39:07;;;;;;;5.63;3.38;;;16.40;72.10;;;;;;5112704;28;20173;-68
2023/10/26 12:41:33;;;;;;;3.40;3.10;;;16.30;72.10;;;;;;5113360;28;20658;-69
2023/10/26 12:43:58;;;;;;;3.67;3.33;;;16.30;72.10;;;;;;5113350;28;20169;-68